La Scie, Canada
Current Conditions -  °F | °C
As of 5:00 PM on Sunday 25 Jan 2015 (Local Time) from CYQX Reporting Station
Broken Clouds Broken Clouds  
Wind Chill: 21°   Ceiling: 2400
Heat Index: 34°   Visibility: 15mi
Dew Point: 27°   Wind: 25mph
Humidity: 75%   Direction: 230°SW
Pressure: 28.98"   Gusts: 45mph
Location:  49.97°N, 55.58°W
Report Text: CYQX 252000Z 23022G39KT 15SM BKN024 01/M03 A2898 RMK SC6 PRESRR SLP820
Loading
Personal Weather Stations






























Interactive Weather Map New forecast layout! Learn more

10-Day Weather Forecast

Advertisements
Track Severe Weather on mobile